Terminal Aerodrome Forecast
Issued by NWS

Home | Current Version | Previous Version | Text Only | Print | Product List | Glossary On
Versions: 1 2 3 4 5 6 7 8 9 10 11 12 13 14 15 16 17 18
000
FTUS43 KEAX 161100
TAFSTJ
TAF
KSTJ 161120Z 1612/1712 VRB04KT P6SM BKN015
      TEMPO 1612/1614 4SM BR SCT015
     FM161600 VRB03KT P6SM BKN025
     FM161800 13005KT P6SM SCT035
     FM170000 VRB04KT P6SM BKN250=

USA.gov is the U.S. government's official web portal to all federal, state and local government web resources and services.